Time;durP1;ratioP1;P1;durP2;ratioP2;P2;SDS_P1;SDS_P2;PMS_P1;PMS_P2;Temp;Humidity;BMP_temperature;BMP_pressure;BME280_temperature;BME280_humidity;BME280_pressure;Samples;Min_cycle;Max_cycle;Signal;HPM_P1;HPM_P2
2021/10/11 00:01:28;;;;;;;13.05;11.75;;;;;;;;;;5128775;27;24775;-58
2021/10/11 00:03:53;;;;;;;13.00;11.80;;;;;;;;;;5126530;27;24462;-58
2021/10/11 00:06:18;;;;;;;14.80;12.63;;;;;;;;;;5128250;27;24444;-58
2021/10/11 00:08:43;;;;;;;13.50;12.20;;;;;;;;;;5127997;27;24834;-58
2021/10/11 00:11:09;;;;;;;13.30;11.90;;;;;;;;;;5128835;27;24964;-58
2021/10/11 00:13:34;;;;;;;13.30;11.90;;;;;;;;;;5128552;27;24409;-58
2021/10/11 00:15:59;;;;;;;13.40;12.10;;;;;;;;;;5127049;27;24420;-59
2021/10/11 00:18:24;;;;;;;13.40;12.10;;;;;;;;;;5127819;27;24504;-58
2021/10/11 00:20:49;;;;;;;13.20;11.90;;;;;;;;;;5127991;27;24984;-58
2021/10/11 00:23:15;;;;;;;14.27;12.77;;;;;;;;;;5128175;27;24409;-58
2021/10/11 00:25:40;;;;;;;13.33;11.93;;;;;;;;;;5127467;27;24425;-58
2021/10/11 00:28:05;;;;;;;13.73;12.23;;;;;;;;;;5126923;27;24989;-58
2021/10/11 00:30:31;;;;;;;13.20;11.87;;;;;;;;;;5128258;27;24405;-58
2021/10/11 00:32:56;;;;;;;13.20;11.90;;;;;;;;;;5127634;27;24409;-58
2021/10/11 00:35:21;;;;;;;13.52;12.13;;;;;;;;;;5123324;27;24445;-58
2021/10/11 00:37:46;;;;;;;12.53;11.33;;;;;;;;;;5126406;27;24557;-58
2021/10/11 00:40:11;;;;;;;13.50;12.20;;;;;;;;;;5127326;27;24494;-58
2021/10/11 00:42:36;;;;;;;14.27;12.97;;;;;;;;;;5127926;27;24470;-58
2021/10/11 00:45:02;;;;;;;13.70;12.40;;;;;;;;;;5127842;27;25051;-58
2021/10/11 00:47:27;;;;;;;13.65;12.25;;;;;;;;;;5126149;27;24474;-58
2021/10/11 00:49:52;;;;;;;14.07;12.68;;;;;;;;;;5126713;27;24409;-58
2021/10/11 00:52:18;;;;;;;13.75;12.35;;;;;;;;;;5126629;27;25327;-59
2021/10/11 00:54:44;;;;;;;14.30;12.87;;;;;;;;;;5127221;27;24491;-57
2021/10/11 00:57:09;;;;;;;14.23;12.83;;;;;;;;;;5127116;27;24590;-58
2021/10/11 00:59:34;;;;;;;14.53;13.13;;;;;;;;;;5124544;27;24409;-58
2021/10/11 01:01:59;;;;;;;15.13;13.63;;;;;;;;;;5127562;27;24409;-58
2021/10/11 01:04:25;;;;;;;14.10;12.80;;;;;;;;;;5121483;27;24482;-58
2021/10/11 01:06:50;;;;;;;15.23;13.73;;;;;;;;;;5127367;27;24440;-58
2021/10/11 01:09:15;;;;;;;14.63;13.02;;;;;;;;;;5126190;27;25080;-58
2021/10/11 01:11:40;;;;;;;14.77;13.37;;;;;;;;;;5127219;27;24995;-57
2021/10/11 01:14:06;;;;;;;15.68;14.07;;;;;;;;;;5126061;27;24421;-58
2021/10/11 01:16:32;;;;;;;16.25;13.48;;;;;;;;;;5126055;28;24414;-58
2021/10/11 01:18:57;;;;;;;15.13;13.63;;;;;;;;;;5123060;27;25074;-58
2021/10/11 01:21:23;;;;;;;14.77;13.33;;;;;;;;;;5124198;28;24413;-58
2021/10/11 01:23:48;;;;;;;15.45;13.23;;;;;;;;;;5124977;27;24420;-58
2021/10/11 01:26:13;;;;;;;14.90;13.30;;;;;;;;;;5122717;28;24425;-59
2021/10/11 01:28:38;;;;;;;15.17;13.67;;;;;;;;;;5126506;28;24435;-58
2021/10/11 01:31:03;;;;;;;15.35;13.80;;;;;;;;;;5123267;28;25013;-58
2021/10/11 01:33:28;;;;;;;15.37;13.87;;;;;;;;;;5124649;28;24421;-58
2021/10/11 01:35:54;;;;;;;14.82;13.32;;;;;;;;;;5126423;28;25363;-58
2021/10/11 01:38:19;;;;;;;15.20;13.60;;;;;;;;;;5126825;28;24955;-58
2021/10/11 01:40:44;;;;;;;16.60;14.00;;;;;;;;;;5126791;28;24450;-58
2021/10/11 01:43:09;;;;;;;15.20;13.70;;;;;;;;;;5126688;28;24944;-58
2021/10/11 01:45:35;;;;;;;15.07;13.57;;;;;;;;;;5126695;28;24433;-58
2021/10/11 01:48:00;;;;;;;15.05;13.45;;;;;;;;;;5126155;28;25092;-58
2021/10/11 01:50:25;;;;;;;14.95;13.38;;;;;;;;;;5122667;28;24425;-58
2021/10/11 01:52:51;;;;;;;15.93;14.32;;;;;;;;;;5125124;28;24836;-57
2021/10/11 01:55:16;;;;;;;15.23;13.90;;;;;;;;;;5127067;28;24408;-57
2021/10/11 01:57:41;;;;;;;15.40;13.90;;;;;;;;;;5125553;28;24445;-58
2021/10/11 02:00:07;;;;;;;15.10;13.70;;;;;;;;;;5125969;28;24485;-57
2021/10/11 02:02:33;;;;;;;15.30;14.00;;;;;;;;;;5126193;28;24506;-57
2021/10/11 02:04:58;;;;;;;14.93;13.52;;;;;;;;;;5127095;28;24929;-57
2021/10/11 02:07:23;;;;;;;14.07;12.77;;;;;;;;;;5125950;28;24414;-57
2021/10/11 02:09:48;;;;;;;15.60;14.20;;;;;;;;;;5124970;28;24405;-58
2021/10/11 02:12:14;;;;;;;16.00;14.40;;;;;;;;;;5123498;28;24504;-57
2021/10/11 02:14:39;;;;;;;15.50;14.20;;;;;;;;;;5123713;28;24417;-58
2021/10/11 02:17:04;;;;;;;16.67;15.18;;;;;;;;;;5126652;28;24409;-58
2021/10/11 02:19:29;;;;;;;15.95;14.55;;;;;;;;;;5123967;28;24544;-58
2021/10/11 02:21:54;;;;;;;15.47;14.17;;;;;;;;;;5125694;28;24778;-59
2021/10/11 02:24:19;;;;;;;15.40;14.00;;;;;;;;;;5126328;27;24768;-57
2021/10/11 02:26:44;;;;;;;15.38;13.98;;;;;;;;;;5124974;27;24963;-59
2021/10/11 02:29:10;;;;;;;15.07;13.77;;;;;;;;;;5123472;27;24453;-57
2021/10/11 02:31:35;;;;;;;15.40;14.00;;;;;;;;;;5123643;27;24555;-56
2021/10/11 02:34:00;;;;;;;17.97;16.17;;;;;;;;;;5129777;27;24409;-57
2021/10/11 02:36:25;;;;;;;17.65;16.05;;;;;;;;;;5130290;27;24450;-57
2021/10/11 02:38:50;;;;;;;17.83;16.23;;;;;;;;;;5129951;27;24487;-59
2021/10/11 02:41:15;;;;;;;15.80;14.40;;;;;;;;;;5125995;27;24581;-58
2021/10/11 02:43:41;;;;;;;16.42;14.82;;;;;;;;;;5129970;27;25233;-58
2021/10/11 02:46:06;;;;;;;17.00;15.50;;;;;;;;;;5130439;27;24498;-58
2021/10/11 02:48:31;;;;;;;19.35;17.65;;;;;;;;;;5128804;27;24421;-58
2021/10/11 02:50:56;;;;;;;17.40;15.80;;;;;;;;;;5123385;27;24902;-58
2021/10/11 02:53:21;;;;;;;16.90;15.30;;;;;;;;;;5128608;27;24413;-58
2021/10/11 02:55:46;;;;;;;17.00;15.50;;;;;;;;;;5130174;27;24413;-58
2021/10/11 02:58:11;;;;;;;18.60;16.90;;;;;;;;;;5124365;27;24463;-58
2021/10/11 03:00:37;;;;;;;17.73;16.15;;;;;;;;;;5125556;27;24419;-58
2021/10/11 03:03:02;;;;;;;18.30;16.70;;;;;;;;;;5126478;27;24991;-58
2021/10/11 03:05:27;;;;;;;18.00;16.40;;;;;;;;;;5129812;27;24536;-59
2021/10/11 03:07:52;;;;;;;18.30;16.50;;;;;;;;;;5129273;27;24415;-59
2021/10/11 03:10:17;;;;;;;18.90;17.17;;;;;;;;;;5129482;27;24398;-59
2021/10/11 03:12:42;;;;;;;16.73;15.32;;;;;;;;;;5129458;27;24730;-59
2021/10/11 03:15:08;;;;;;;17.70;16.20;;;;;;;;;;5127665;27;24653;-58
2021/10/11 03:17:33;;;;;;;17.60;15.90;;;;;;;;;;5121080;27;24478;-59
2021/10/11 03:19:58;;;;;;;17.60;16.00;;;;;;;;;;5125928;27;24627;-59
2021/10/11 03:22:23;;;;;;;17.98;16.23;;;;;;;;;;5128975;27;24513;-59
2021/10/11 03:24:49;;;;;;;19.50;17.80;;;;;;;;;;5128200;27;24498;-58
2021/10/11 03:27:14;;;;;;;17.98;16.40;;;;;;;;;;5129415;27;24805;-58
2021/10/11 03:29:39;;;;;;;18.20;16.50;;;;;;;;;;5118056;27;24960;-59
2021/10/11 03:32:04;;;;;;;17.27;15.77;;;;;;;;;;5127030;27;24512;-59
2021/10/11 03:34:29;;;;;;;16.93;15.43;;;;;;;;;;5127177;27;24448;-58
2021/10/11 03:36:54;;;;;;;18.50;16.80;;;;;;;;;;5127735;27;24503;-57
2021/10/11 03:39:20;;;;;;;17.33;15.83;;;;;;;;;;5115550;27;24441;-57
2021/10/11 03:41:45;;;;;;;16.20;14.70;;;;;;;;;;5124283;27;24417;-58
2021/10/11 03:44:10;;;;;;;16.20;14.60;;;;;;;;;;5128518;27;24425;-58
2021/10/11 03:46:35;;;;;;;18.63;16.93;;;;;;;;;;5121114;27;24405;-58
2021/10/11 03:49:02;;;;;;;19.23;17.53;;;;;;;;;;5111969;27;24409;-58
2021/10/11 03:51:27;;;;;;;17.50;15.80;;;;;;;;;;5124501;27;24920;-57
2021/10/11 03:53:52;;;;;;;17.63;16.03;;;;;;;;;;5128307;27;24405;-58
2021/10/11 03:56:18;;;;;;;20.13;18.35;;;;;;;;;;5128637;27;24526;-58
2021/10/11 03:58:43;;;;;;;18.90;17.20;;;;;;;;;;5128148;27;24413;-58
2021/10/11 04:01:08;;;;;;;16.70;15.30;;;;;;;;;;5129071;27;24484;-58
2021/10/11 04:03:33;;;;;;;19.00;17.10;;;;;;;;;;5128375;27;24467;-58
2021/10/11 04:05:59;;;;;;;18.20;16.60;;;;;;;;;;5128445;27;24433;-58
2021/10/11 04:08:32;;;;;;;19.20;17.50;;;;;;;;;;5128629;27;24396;-58
2021/10/11 04:11:03;;;;;;;17.77;16.27;;;;;;;;;;5128552;27;24420;-58
2021/10/11 04:13:28;;;;;;;17.87;16.17;;;;;;;;;;5128559;27;24460;-58
2021/10/11 04:15:53;;;;;;;18.00;16.30;;;;;;;;;;5127318;27;24413;-58
2021/10/11 04:18:18;;;;;;;18.80;17.00;;;;;;;;;;5120001;27;24785;-58
2021/10/11 04:20:44;;;;;;;17.77;16.20;;;;;;;;;;5128404;27;24424;-58
2021/10/11 04:23:09;;;;;;;18.10;16.50;;;;;;;;;;5128333;27;24948;-58
2021/10/11 04:25:34;;;;;;;16.98;15.38;;;;;;;;;;5124433;27;24540;-58
2021/10/11 04:28:00;;;;;;;17.40;15.90;;;;;;;;;;5127220;27;24793;-58
2021/10/11 04:30:25;;;;;;;18.07;16.47;;;;;;;;;;5126199;27;24425;-58
2021/10/11 04:32:50;;;;;;;16.50;15.00;;;;;;;;;;5126253;27;24421;-58
2021/10/11 04:35:15;;;;;;;18.43;16.73;;;;;;;;;;5128123;27;24431;-58
2021/10/11 04:37:40;;;;;;;19.27;17.37;;;;;;;;;;5122874;27;24500;-58
2021/10/11 04:40:06;;;;;;;18.03;16.40;;;;;;;;;;5123751;27;24421;-58
2021/10/11 04:42:31;;;;;;;16.73;15.23;;;;;;;;;;5121863;27;24828;-57
2021/10/11 04:44:56;;;;;;;17.90;16.30;;;;;;;;;;5123599;27;24513;-58
2021/10/11 04:47:22;;;;;;;20.00;18.10;;;;;;;;;;5124448;27;24988;-58
2021/10/11 04:49:47;;;;;;;18.07;16.47;;;;;;;;;;5124131;27;24558;-58
2021/10/11 04:52:12;;;;;;;18.13;16.63;;;;;;;;;;5125199;27;24905;-58
2021/10/11 04:54:37;;;;;;;19.02;17.33;;;;;;;;;;5123954;27;24528;-58
2021/10/11 04:57:02;;;;;;;16.95;15.45;;;;;;;;;;5124324;27;24432;-58
2021/10/11 04:59:27;;;;;;;19.40;17.60;;;;;;;;;;5119556;27;24742;-58
2021/10/11 05:01:52;;;;;;;19.47;17.67;;;;;;;;;;5122993;27;24405;-58
2021/10/11 05:04:18;;;;;;;17.80;16.20;;;;;;;;;;5104498;28;24415;-58
2021/10/11 05:06:43;;;;;;;18.17;16.48;;;;;;;;;;5120956;27;24541;-58
2021/10/11 05:09:08;;;;;;;18.08;16.38;;;;;;;;;;5124130;27;24410;-58
2021/10/11 05:11:33;;;;;;;17.90;16.30;;;;;;;;;;5119835;27;24953;-58
2021/10/11 05:13:58;;;;;;;18.43;16.83;;;;;;;;;;5124201;27;24441;-58
2021/10/11 05:16:24;;;;;;;19.05;17.15;;;;;;;;;;5122620;28;24421;-58
2021/10/11 05:18:49;;;;;;;16.75;15.15;;;;;;;;;;5124786;28;24509;-58
2021/10/11 05:21:15;;;;;;;17.80;16.20;;;;;;;;;;5123311;28;24425;-57
2021/10/11 05:23:40;;;;;;;18.00;16.50;;;;;;;;;;5119002;28;24470;-58
2021/10/11 05:26:05;;;;;;;17.90;16.30;;;;;;;;;;5117531;28;24819;-58
2021/10/11 05:28:41;;;;;;;19.40;17.70;;;;;;;;;;5120933;28;24425;-58
2021/10/11 05:31:07;;;;;;;16.95;15.35;;;;;;;;;;5120570;28;24424;-58
2021/10/11 05:33:33;;;;;;;17.60;15.90;;;;;;;;;;5123236;28;24444;-57
2021/10/11 05:35:58;;;;;;;17.90;16.30;;;;;;;;;;5119628;28;24489;-58
2021/10/11 05:38:23;;;;;;;15.70;14.30;;;;;;;;;;5117346;28;24412;-58
2021/10/11 05:40:48;;;;;;;18.23;16.63;;;;;;;;;;5119832;28;24528;-57
2021/10/11 05:43:13;;;;;;;18.02;16.45;;;;;;;;;;5123484;28;24504;-58
2021/10/11 05:45:39;;;;;;;21.13;19.33;;;;;;;;;;5123450;28;24413;-57
2021/10/11 05:48:04;;;;;;;17.60;16.00;;;;;;;;;;5121169;28;24393;-57
2021/10/11 05:50:29;;;;;;;21.17;19.17;;;;;;;;;;5117401;28;24405;-58
2021/10/11 05:52:54;;;;;;;19.50;17.50;;;;;;;;;;5110643;28;24778;-58
2021/10/11 05:55:19;;;;;;;18.50;16.70;;;;;;;;;;5121210;28;24806;-58
2021/10/11 05:57:44;;;;;;;17.55;15.95;;;;;;;;;;5120111;28;24401;-59
2021/10/11 06:00:10;;;;;;;19.73;18.02;;;;;;;;;;5113040;28;24425;-59
2021/10/11 06:02:36;;;;;;;17.40;15.90;;;;;;;;;;5126744;27;24850;-58
2021/10/11 06:05:01;;;;;;;17.23;15.63;;;;;;;;;;5126170;27;24482;-59
2021/10/11 06:07:27;;;;;;;17.00;15.60;;;;;;;;;;5127526;27;25135;-59
2021/10/11 06:09:52;;;;;;;18.97;17.27;;;;;;;;;;5126667;27;25026;-59
2021/10/11 06:12:17;;;;;;;20.73;18.83;;;;;;;;;;5127604;27;24444;-58
2021/10/11 06:14:42;;;;;;;19.13;17.58;;;;;;;;;;5127192;27;24677;-58
2021/10/11 06:17:07;;;;;;;16.67;15.18;;;;;;;;;;5127372;27;24417;-58
2021/10/11 06:19:32;;;;;;;19.73;18.13;;;;;;;;;;5127510;27;24433;-58
2021/10/11 06:21:58;;;;;;;16.23;14.83;;;;;;;;;;5126058;27;24420;-58
2021/10/11 06:24:23;;;;;;;16.15;14.75;;;;;;;;;;5122270;27;24435;-58
2021/10/11 06:26:49;;;;;;;20.07;18.37;;;;;;;;;;5126712;27;24940;-58
2021/10/11 06:29:14;;;;;;;17.00;15.50;;;;;;;;;;5127374;27;24769;-58
2021/10/11 06:31:39;;;;;;;19.52;17.83;;;;;;;;;;5128459;27;24481;-58
2021/10/11 06:34:05;;;;;;;17.75;16.17;;;;;;;;;;5124507;27;25068;-58
2021/10/11 06:36:34;;;;;;;16.90;15.50;;;;;;;;;;5118804;27;24405;-58
2021/10/11 06:39:00;;;;;;;15.80;14.60;;;;;;;;;;5128661;27;24420;-58
2021/10/11 06:41:25;;;;;;;17.10;15.70;;;;;;;;;;5129824;27;24953;-57
2021/10/11 06:43:50;;;;;;;19.02;17.40;;;;;;;;;;5127443;27;24509;-58
2021/10/11 06:46:15;;;;;;;19.90;18.17;;;;;;;;;;5128507;27;24991;-58
2021/10/11 06:48:41;;;;;;;19.75;17.98;;;;;;;;;;5122629;27;24454;-58
2021/10/11 06:51:06;;;;;;;16.35;14.90;;;;;;;;;;5125603;27;24425;-57
2021/10/11 06:53:31;;;;;;;18.60;17.00;;;;;;;;;;5125779;27;24974;-58
2021/10/11 06:55:56;;;;;;;18.80;17.10;;;;;;;;;;5124433;27;24445;-58
2021/10/11 06:58:22;;;;;;;16.30;15.00;;;;;;;;;;5122425;27;24416;-59
2021/10/11 07:00:47;;;;;;;17.40;15.90;;;;;;;;;;5122329;27;24405;-59
2021/10/11 07:03:12;;;;;;;16.42;15.02;;;;;;;;;;5122615;27;24779;-59
2021/10/11 07:05:37;;;;;;;16.90;15.40;;;;;;;;;;5124478;27;24412;-59
2021/10/11 07:08:09;;;;;;;17.63;16.10;;;;;;;;;;5124190;27;24394;-59
2021/10/11 07:10:34;;;;;;;15.90;14.50;;;;;;;;;;5126443;27;24905;-59
2021/10/11 07:12:59;;;;;;;15.90;14.40;;;;;;;;;;5122077;27;24461;-59
2021/10/11 07:15:24;;;;;;;17.65;16.05;;;;;;;;;;5119535;27;24413;-58
2021/10/11 07:17:49;;;;;;;18.98;17.25;;;;;;;;;;5121558;27;24846;-59
2021/10/11 07:20:15;;;;;;;18.73;17.03;;;;;;;;;;5123960;27;24454;-58
2021/10/11 07:22:41;;;;;;;19.38;17.67;;;;;;;;;;5125918;27;24397;-59
2021/10/11 07:25:06;;;;;;;16.00;14.60;;;;;;;;;;5123120;27;24425;-59
2021/10/11 07:27:31;;;;;;;19.40;17.60;;;;;;;;;;5124039;27;24393;-58
2021/10/11 07:29:56;;;;;;;17.45;15.95;;;;;;;;;;5119682;27;24417;-59
2021/10/11 07:32:21;;;;;;;19.97;18.17;;;;;;;;;;5121950;27;24426;-59
2021/10/11 07:34:47;;;;;;;17.05;15.57;;;;;;;;;;5120911;27;25084;-58
2021/10/11 07:37:12;;;;;;;18.23;16.52;;;;;;;;;;5125661;27;24431;-57
2021/10/11 07:39:37;;;;;;;17.40;15.80;;;;;;;;;;5125867;27;24496;-57
2021/10/11 07:42:02;;;;;;;16.55;15.05;;;;;;;;;;5123222;27;25028;-57
2021/10/11 07:44:29;;;;;;;15.80;14.30;;;;;;;;;;5119537;27;25220;-57
2021/10/11 07:46:54;;;;;;;19.33;17.42;;;;;;;;;;5121029;27;25259;-57
2021/10/11 07:49:20;;;;;;;21.30;19.20;;;;;;;;;;5123089;27;24496;-58
2021/10/11 07:51:46;;;;;;;18.30;16.50;;;;;;;;;;5123631;27;24396;-58
2021/10/11 07:54:11;;;;;;;17.40;15.70;;;;;;;;;;5125113;27;24492;-58
2021/10/11 07:56:37;;;;;;;15.27;13.77;;;;;;;;;;5125044;27;24417;-58
2021/10/11 07:59:02;;;;;;;18.38;16.48;;;;;;;;;;5118929;27;24409;-58
2021/10/11 08:01:27;;;;;;;18.63;16.63;;;;;;;;;;5119525;27;24393;-58
2021/10/11 08:03:52;;;;;;;16.85;15.25;;;;;;;;;;5120900;27;24389;-58
2021/10/11 08:06:18;;;;;;;16.25;14.75;;;;;;;;;;5124514;27;24424;-58
2021/10/11 08:08:43;;;;;;;15.95;14.35;;;;;;;;;;5124974;27;24408;-58
2021/10/11 08:11:08;;;;;;;13.70;12.40;;;;;;;;;;5123308;27;25179;-59
2021/10/11 08:13:33;;;;;;;18.17;16.37;;;;;;;;;;5121135;27;24714;-58
2021/10/11 08:15:58;;;;;;;18.07;16.27;;;;;;;;;;5118977;27;24442;-58
2021/10/11 08:18:24;;;;;;;17.80;16.00;;;;;;;;;;5122202;27;24990;-58
2021/10/11 08:20:49;;;;;;;15.80;14.20;;;;;;;;;;5120689;27;24413;-58
2021/10/11 08:23:14;;;;;;;15.60;14.10;;;;;;;;;;5124799;27;24796;-58
2021/10/11 08:25:39;;;;;;;14.43;13.03;;;;;;;;;;5124157;27;24424;-59
2021/10/11 08:28:05;;;;;;;14.17;12.67;;;;;;;;;;5120325;27;24432;-59
2021/10/11 08:30:30;;;;;;;15.90;14.40;;;;;;;;;;5118406;27;24389;-59
2021/10/11 08:32:56;;;;;;;13.93;12.63;;;;;;;;;;5120476;27;24442;-59
2021/10/11 08:35:21;;;;;;;12.50;11.27;;;;;;;;;;5122452;27;24421;-58
2021/10/11 08:37:46;;;;;;;14.35;13.05;;;;;;;;;;5124241;27;24412;-58
2021/10/11 08:40:11;;;;;;;17.40;15.67;;;;;;;;;;5122330;27;24414;-58
2021/10/11 08:42:38;;;;;;;15.30;13.80;;;;;;;;;;5122484;27;24388;-58
2021/10/11 08:45:04;;;;;;;14.52;13.13;;;;;;;;;;5123945;27;25296;-58
2021/10/11 08:47:29;;;;;;;16.20;14.60;;;;;;;;;;5124167;27;24393;-59
2021/10/11 08:49:54;;;;;;;16.23;14.63;;;;;;;;;;5121699;27;24427;-59
2021/10/11 08:52:23;;;;;;;15.00;13.40;;;;;;;;;;5122589;27;24901;-58
2021/10/11 08:54:49;;;;;;;14.70;13.13;;;;;;;;;;5118532;27;24407;-58
2021/10/11 08:57:23;;;;;;;16.80;15.20;;;;;;;;;;5122314;27;24936;-59
2021/10/11 08:59:49;;;;;;;15.90;14.30;;;;;;;;;;5119520;27;24723;-59
2021/10/11 09:02:16;;;;;;;16.20;14.60;;;;;;;;;;5124313;27;24933;-59
2021/10/11 09:04:48;;;;;;;16.93;15.13;;;;;;;;;;5123799;27;24424;-59
2021/10/11 09:07:13;;;;;;;14.70;13.30;;;;;;;;;;5120103;27;24484;-59
2021/10/11 09:09:48;;;;;;;14.00;12.73;;;;;;;;;;5118005;27;26680;-58
2021/10/11 09:12:39;;;;;;;17.77;15.98;;;;;;;;;;5124197;27;24500;-60
2021/10/11 09:15:04;;;;;;;14.77;13.30;;;;;;;;;;5117729;28;24945;-58
2021/10/11 09:17:33;;;;;;;13.47;12.17;;;;;;;;;;5122047;28;24408;-58
2021/10/11 09:20:08;;;;;;;14.95;13.45;;;;;;;;;;5117964;28;24401;-59
2021/10/11 09:22:34;;;;;;;15.25;13.75;;;;;;;;;;5097751;28;24500;-58
2021/10/11 09:25:00;;;;;;;13.00;11.80;;;;;;;;;;5101202;28;24420;-59
2021/10/11 09:27:25;;;;;;;12.90;11.70;;;;;;;;;;5103006;28;24402;-58
2021/10/11 09:29:50;;;;;;;13.93;12.50;;;;;;;;;;5101173;28;24460;-59
2021/10/11 09:32:16;;;;;;;13.32;12.13;;;;;;;;;;5117049;28;24437;-58
2021/10/11 09:34:41;;;;;;;14.70;13.20;;;;;;;;;;5119679;28;24843;-58
2021/10/11 09:37:10;;;;;;;14.13;12.63;;;;;;;;;;5121816;27;24790;-60
2021/10/11 09:39:36;;;;;;;12.88;11.65;;;;;;;;;;5127625;27;24404;-59
2021/10/11 09:42:03;;;;;;;12.27;11.07;;;;;;;;;;5125490;27;24800;-60
2021/10/11 09:44:29;;;;;;;13.15;11.85;;;;;;;;;;5127537;27;24480;-59
2021/10/11 09:46:57;;;;;;;16.50;14.90;;;;;;;;;;5122076;27;24503;-60
2021/10/11 09:49:24;;;;;;;12.48;11.38;;;;;;;;;;5122264;27;24525;-59
2021/10/11 09:51:51;;;;;;;13.95;12.55;;;;;;;;;;5123393;27;24401;-60
2021/10/11 09:54:16;;;;;;;12.90;11.60;;;;;;;;;;5128047;27;24397;-60
2021/10/11 09:56:43;;;;;;;14.00;12.60;;;;;;;;;;5127423;27;24645;-59
2021/10/11 09:59:09;;;;;;;15.85;14.35;;;;;;;;;;5125708;27;24400;-59
2021/10/11 10:01:34;;;;;;;18.02;16.33;;;;;;;;;;5125982;27;24416;-60
2021/10/11 10:03:59;;;;;;;16.50;14.80;;;;;;;;;;5120865;27;24405;-59
2021/10/11 10:06:30;;;;;;;16.00;14.30;;;;;;;;;;5123573;27;24431;-59
2021/10/11 10:08:57;;;;;;;17.98;16.27;;;;;;;;;;5124931;27;24410;-60
2021/10/11 10:11:27;;;;;;;18.20;16.50;;;;;;;;;;5127448;27;24999;-59
2021/10/11 10:13:53;;;;;;;22.63;20.45;;;;;;;;;;5124960;27;24986;-59
2021/10/11 10:16:18;;;;;;;18.10;15.98;;;;;;;;;;5125240;27;24405;-59
2021/10/11 10:18:45;;;;;;;19.17;17.07;;;;;;;;;;5123278;27;24434;-59
2021/10/11 10:21:11;;;;;;;22.95;20.65;;;;;;;;;;5121495;27;24408;-59
2021/10/11 10:23:37;;;;;;;18.00;16.20;;;;;;;;;;5123064;27;24843;-60
2021/10/11 10:26:03;;;;;;;16.90;15.30;;;;;;;;;;5124748;27;25174;-60
2021/10/11 10:28:41;;;;;;;17.48;15.68;;;;;;;;;;5126939;27;24500;-59
2021/10/11 10:31:06;;;;;;;16.88;15.18;;;;;;;;;;5123003;27;24393;-60
2021/10/11 10:33:32;;;;;;;19.08;17.15;;;;;;;;;;5121368;27;24397;-60
2021/10/11 10:35:57;;;;;;;20.35;17.85;;;;;;;;;;5122440;27;24440;-60
2021/10/11 10:38:24;;;;;;;21.30;19.10;;;;;;;;;;5124933;27;24385;-59
2021/10/11 10:40:49;;;;;;;20.35;18.25;;;;;;;;;;5124576;27;24805;-59
2021/10/11 10:43:16;;;;;;;19.83;17.93;;;;;;;;;;5127026;27;24435;-59
2021/10/11 10:45:42;;;;;;;21.92;19.50;;;;;;;;;;5124269;27;24428;-59
2021/10/11 10:48:24;;;;;;;26.00;23.33;;;;;;;;;;5120099;27;24403;-59
2021/10/11 10:50:51;;;;;;;19.17;17.08;;;;;;;;;;5122633;27;24442;-59
2021/10/11 10:53:16;;;;;;;22.30;20.00;;;;;;;;;;5122597;27;24409;-58
2021/10/11 10:55:42;;;;;;;20.98;18.88;;;;;;;;;;5126353;27;24436;-58
2021/10/11 10:58:10;;;;;;;22.25;19.85;;;;;;;;;;5124138;27;24450;-58
2021/10/11 11:00:35;;;;;;;26.00;23.35;;;;;;;;;;5126443;27;24450;-59
2021/10/11 11:03:01;;;;;;;31.47;28.03;;;;;;;;;;5119595;27;24979;-59
2021/10/11 11:05:27;;;;;;;29.30;26.20;;;;;;;;;;5120336;27;24428;-59
2021/10/11 11:07:53;;;;;;;27.08;24.27;;;;;;;;;;5122178;27;24530;-59
2021/10/11 11:10:23;;;;;;;22.87;20.67;;;;;;;;;;5126410;27;24389;-60
2021/10/11 11:12:56;;;;;;;22.40;20.10;;;;;;;;;;5123658;27;25007;-59
2021/10/11 11:15:24;;;;;;;22.67;20.27;;;;;;;;;;5125878;27;24884;-59
2021/10/11 11:17:50;;;;;;;25.55;22.85;;;;;;;;;;5122228;27;24413;-60
2021/10/11 11:20:18;;;;;;;21.10;19.00;;;;;;;;;;5121850;27;24443;-59
2021/10/11 11:22:43;;;;;;;26.30;23.60;;;;;;;;;;5122621;27;24444;-59
2021/10/11 11:25:08;;;;;;;26.57;23.77;;;;;;;;;;5122723;27;24448;-59
2021/10/11 11:27:35;;;;;;;26.83;24.30;;;;;;;;;;5126002;27;24989;-59
2021/10/11 11:30:02;;;;;;;25.50;22.90;;;;;;;;;;5123072;27;24396;-59
2021/10/11 11:32:27;;;;;;;32.70;29.50;;;;;;;;;;5125636;27;24549;-59
2021/10/11 11:34:53;;;;;;;29.95;27.10;;;;;;;;;;5121679;27;24456;-59
2021/10/11 11:37:18;;;;;;;27.00;24.30;;;;;;;;;;5121576;27;24392;-59
2021/10/11 11:39:43;;;;;;;27.00;24.27;;;;;;;;;;5121684;27;24802;-59
2021/10/11 11:42:09;;;;;;;26.75;23.95;;;;;;;;;;5125247;27;24432;-59
2021/10/11 11:44:34;;;;;;;25.93;23.33;;;;;;;;;;5125747;27;24439;-59
2021/10/11 11:47:02;;;;;;;25.87;23.17;;;;;;;;;;5119283;27;24505;-59
2021/10/11 11:49:27;;;;;;;24.70;22.20;;;;;;;;;;5119779;27;24446;-59
2021/10/11 11:52:03;;;;;;;25.60;23.10;;;;;;;;;;5119620;27;25223;-59
2021/10/11 11:54:28;;;;;;;25.13;22.60;;;;;;;;;;5123319;27;24428;-59
2021/10/11 11:56:56;;;;;;;25.38;22.77;;;;;;;;;;5123115;27;24905;-59
2021/10/11 11:59:21;;;;;;;28.40;25.40;;;;;;;;;;5124155;27;24386;-59
2021/10/11 12:01:46;;;;;;;26.63;23.67;;;;;;;;;;5124394;27;24412;-60
2021/10/11 12:04:12;;;;;;;29.43;26.50;;;;;;;;;;5118865;27;24538;-60
2021/10/11 12:06:37;;;;;;;28.00;25.10;;;;;;;;;;5119756;27;25477;-60
2021/10/11 12:09:03;;;;;;;30.43;27.33;;;;;;;;;;5121285;27;24400;-60
2021/10/11 12:11:28;;;;;;;27.13;24.23;;;;;;;;;;5125030;27;24749;-60
2021/10/11 12:13:57;;;;;;;22.60;20.30;;;;;;;;;;5122745;27;24401;-60
2021/10/11 12:16:24;;;;;;;27.63;24.73;;;;;;;;;;5122785;27;24393;-60
2021/10/11 12:18:51;;;;;;;28.53;25.60;;;;;;;;;;5121070;27;24440;-60
2021/10/11 12:21:26;;;;;;;26.97;24.07;;;;;;;;;;5119445;27;24507;-60
2021/10/11 12:23:52;;;;;;;32.20;29.00;;;;;;;;;;5120560;27;24416;-60
2021/10/11 12:26:18;;;;;;;29.77;26.58;;;;;;;;;;5124831;27;24524;-60
2021/10/11 12:28:50;;;;;;;29.58;26.48;;;;;;;;;;5124980;27;24500;-60
2021/10/11 12:31:28;;;;;;;29.13;26.13;;;;;;;;;;5142091;27;24500;-59
2021/10/11 12:34:01;;;;;;;33.70;30.10;;;;;;;;;;5114861;28;24732;-60
2021/10/11 12:36:27;;;;;;;29.85;26.75;;;;;;;;;;5117828;28;25116;-59
2021/10/11 12:38:52;;;;;;;28.27;25.38;;;;;;;;;;5119008;28;24748;-59
2021/10/11 12:41:17;;;;;;;28.08;25.17;;;;;;;;;;5121547;28;24390;-59
2021/10/11 12:43:54;;;;;;;30.90;27.70;;;;;;;;;;5103780;28;24402;-59
2021/10/11 12:46:19;;;;;;;28.48;25.67;;;;;;;;;;5098761;28;24394;-59
2021/10/11 12:48:51;;;;;;;30.80;27.60;;;;;;;;;;5096825;28;24397;-58
2021/10/11 12:51:37;;;;;;;28.60;25.70;;;;;;;;;;5095472;27;24425;-58
2021/10/11 12:54:06;;;;;;;28.95;25.85;;;;;;;;;;5120025;27;24572;-59
2021/10/11 12:56:33;;;;;;;31.10;27.90;;;;;;;;;;5120812;28;24389;-59
2021/10/11 12:58:59;;;;;;;32.17;28.88;;;;;;;;;;5118847;28;24401;-59
2021/10/11 13:01:25;;;;;;;29.45;26.30;;;;;;;;;;5120983;28;24397;-59
2021/10/11 13:03:51;;;;;;;30.00;26.90;;;;;;;;;;5115039;28;24413;-59
2021/10/11 13:06:20;;;;;;;26.17;23.50;;;;;;;;;;5116136;28;24398;-59
2021/10/11 13:08:45;;;;;;;31.00;27.85;;;;;;;;;;5118426;28;24389;-59
2021/10/11 13:11:10;;;;;;;29.38;26.20;;;;;;;;;;5120489;28;24946;-59
2021/10/11 13:13:35;;;;;;;29.23;26.33;;;;;;;;;;5118820;28;24463;-59
2021/10/11 13:16:03;;;;;;;31.00;27.73;;;;;;;;;;5117950;28;24579;-59
2021/10/11 13:18:28;;;;;;;26.67;23.73;;;;;;;;;;5115697;28;24443;-59
2021/10/11 13:20:53;;;;;;;30.00;27.00;;;;;;;;;;5105227;28;24430;-59
2021/10/11 13:23:19;;;;;;;33.33;29.80;;;;;;;;;;5096158;28;24406;-59
2021/10/11 13:25:44;;;;;;;29.45;26.30;;;;;;;;;;5096427;28;24414;-59
2021/10/11 13:28:09;;;;;;;33.13;29.53;;;;;;;;;;5098813;28;24405;-59
2021/10/11 13:31:20;;;;;;;27.27;24.40;;;;;;;;;;5099002;28;24796;-59
2021/10/11 13:34:02;;;;;;;24.42;21.85;;;;;;;;;;5098609;28;24462;-59
2021/10/11 13:36:50;;;;;;;23.67;20.67;;;;;;;;;;5088271;28;24947;-59
2021/10/11 13:39:58;;;;;;;22.92;20.42;;;;;;;;;;5094367;28;24958;-59
2021/10/11 13:42:43;;;;;;;23.58;20.30;;;;;;;;;;5079128;28;24413;-59
2021/10/11 14:28:51;;;;;;;33.13;26.67;;;;;;;;;;5069579;28;24815;-59
2021/10/11 15:54:31;;;;;;;19.70;17.65;;;;;;;;;;5081283;28;24556;-59
2021/10/11 15:58:56;;;;;;;20.20;18.20;;;;;;;;;;5078291;28;24467;-59
2021/10/11 16:01:23;;;;;;;19.90;18.00;;;;;;;;;;5081280;28;24414;-60
2021/10/11 16:06:14;;;;;;;19.10;17.30;;;;;;;;;;5083576;28;24939;-59
2021/10/11 16:08:39;;;;;;;20.77;18.77;;;;;;;;;;5063121;28;24624;-59
2021/10/11 16:11:04;;;;;;;24.37;21.97;;;;;;;;;;5076208;28;24481;-58
2021/10/11 16:13:30;;;;;;;21.20;19.10;;;;;;;;;;5071342;28;24415;-58
2021/10/11 16:15:55;;;;;;;20.63;18.73;;;;;;;;;;5073994;28;24490;-57
2021/10/11 16:18:20;;;;;;;20.48;18.58;;;;;;;;;;5061083;28;24959;-56
2021/10/11 16:20:45;;;;;;;18.92;17.23;;;;;;;;;;5067300;28;24967;-57
2021/10/11 16:23:11;;;;;;;18.90;17.10;;;;;;;;;;5071156;28;24461;-58